createdAt,value
2018-12-22T00:00:40.724Z,39.20
2018-12-22T00:03:07.803Z,40.03
2018-12-22T00:05:34.875Z,39.20
2018-12-22T00:08:01.964Z,44.80
2018-12-22T00:10:29.139Z,41.20
2018-12-22T00:12:56.210Z,43.97
2018-12-22T00:15:23.405Z,40.37
2018-12-22T00:17:50.489Z,45.40
2018-12-22T00:20:17.555Z,40.43
2018-12-22T00:22:44.638Z,42.73
2018-12-22T00:25:11.818Z,40.67
2018-12-22T00:27:38.950Z,42.90
2018-12-22T00:30:06.855Z,42.93
2018-12-22T00:32:34.098Z,43.13
2018-12-22T00:35:01.288Z,40.13
2018-12-22T00:37:28.457Z,44.80
2018-12-22T00:39:55.662Z,45.53
2018-12-22T00:42:22.759Z,39.90
2018-12-22T00:44:49.946Z,50.00
2018-12-22T00:47:17.123Z,48.97
2018-12-22T00:49:44.210Z,43.90
2018-12-22T00:52:11.314Z,40.83
2018-12-22T00:54:38.526Z,37.83
2018-12-22T00:57:05.602Z,45.17
2018-12-22T00:59:32.693Z,51.40
2018-12-22T01:01:59.995Z,49.87
2018-12-22T01:04:27.095Z,53.63
2018-12-22T01:06:54.180Z,40.20
2018-12-22T01:09:21.574Z,46.93
2018-12-22T01:11:48.663Z,42.23
2018-12-22T01:14:15.957Z,49.70
2018-12-22T01:16:44.783Z,45.53
2018-12-22T01:19:12.466Z,45.60
2018-12-22T01:21:39.654Z,51.97
2018-12-22T01:24:06.751Z,51.47
2018-12-22T01:26:33.834Z,48.10
2018-12-22T01:29:00.938Z,52.93
2018-12-22T01:31:28.009Z,54.53
2018-12-22T01:33:55.303Z,48.20
2018-12-22T01:36:22.478Z,50.47
2018-12-22T01:38:49.559Z,44.87
2018-12-22T01:41:16.630Z,61.43
2018-12-22T01:43:43.714Z,45.30
2018-12-22T01:46:11.006Z,54.40
2018-12-22T01:48:38.200Z,40.90
2018-12-22T01:51:05.270Z,47.37
2018-12-22T01:53:32.482Z,44.77
2018-12-22T01:55:59.664Z,49.43
2018-12-22T01:58:26.842Z,51.50
2018-12-22T02:00:53.920Z,48.90
2018-12-22T02:03:20.984Z,48.00
2018-12-22T02:05:48.155Z,43.67
2018-12-22T02:08:15.226Z,45.43
2018-12-22T02:10:42.514Z,45.13
2018-12-22T02:13:09.694Z,47.33
2018-12-22T02:15:36.770Z,35.77
2018-12-22T02:18:03.964Z,46.67
2018-12-22T02:20:31.028Z,46.93
2018-12-22T02:22:58.097Z,46.00
2018-12-22T02:25:25.174Z,31.00
2018-12-22T02:27:52.267Z,40.63
2018-12-22T02:30:21.597Z,43.47
2018-12-22T02:32:48.663Z,37.83
2018-12-22T02:35:15.832Z,46.57
2018-12-22T02:37:42.898Z,37.80
2018-12-22T02:40:10.176Z,38.87
2018-12-22T02:42:37.350Z,43.40
2018-12-22T02:45:05.082Z,36.13
2018-12-22T02:47:32.386Z,38.10
2018-12-22T02:49:59.540Z,34.47
2018-12-22T02:52:26.618Z,35.43
2018-12-22T02:54:53.801Z,33.07
2018-12-22T02:57:20.891Z,34.73
2018-12-22T02:59:47.987Z,28.90
2018-12-22T03:02:15.220Z,22.87
2018-12-22T03:04:42.279Z,30.13
2018-12-22T03:07:09.498Z,22.80
2018-12-22T03:09:36.556Z,21.67
2018-12-22T03:12:03.831Z,19.27
2018-12-22T03:14:30.899Z,22.03
2018-12-22T03:16:57.976Z,17.07
2018-12-22T03:19:25.160Z,23.87
2018-12-22T03:21:52.326Z,14.23
2018-12-22T03:24:19.495Z,14.93
2018-12-22T03:26:46.778Z,14.17
2018-12-22T03:29:15.771Z,17.47
2018-12-22T03:31:43.073Z,12.30
2018-12-22T03:34:10.630Z,14.30
2018-12-22T03:36:37.711Z,12.63
2018-12-22T03:39:07.213Z,12.33
2018-12-22T03:41:34.326Z,14.27
2018-12-22T03:44:01.503Z,14.93
2018-12-22T03:46:28.622Z,11.97
2018-12-22T03:48:55.681Z,15.00
2018-12-22T03:51:22.746Z,12.73
2018-12-22T03:53:49.924Z,8.30
2018-12-22T03:56:16.989Z,12.37
2018-12-22T03:58:44.047Z,16.20
2018-12-22T04:01:11.383Z,11.47
2018-12-22T04:03:38.569Z,12.67
2018-12-22T04:06:05.709Z,14.87
2018-12-22T04:08:32.872Z,16.90
2018-12-22T04:10:59.948Z,15.60
2018-12-22T04:13:27.005Z,19.10
2018-12-22T04:15:54.171Z,16.40
2018-12-22T04:18:21.241Z,17.13
2018-12-22T04:20:48.317Z,18.23
2018-12-22T04:23:15.378Z,17.20
2018-12-22T04:25:42.428Z,17.10
2018-12-22T04:28:09.703Z,12.47
2018-12-22T04:30:36.775Z,16.60
2018-12-22T04:33:04.065Z,18.43
2018-12-22T04:35:31.237Z,16.53
2018-12-22T04:37:58.432Z,18.80
2018-12-22T04:40:25.487Z,11.57
2018-12-22T04:42:52.560Z,18.37
2018-12-22T04:45:19.626Z,18.27
2018-12-22T04:47:46.704Z,21.70
2018-12-22T04:50:13.776Z,18.60
2018-12-22T04:52:40.936Z,16.70
2018-12-22T04:55:08.081Z,28.00
2018-12-22T04:57:35.257Z,23.00
2018-12-22T05:00:02.963Z,6.90
2018-12-22T05:02:30.055Z,8.07
2018-12-22T05:04:57.231Z,6.23
2018-12-22T05:07:24.308Z,6.50
2018-12-22T05:09:51.380Z,7.97
2018-12-22T05:12:18.542Z,6.53
2018-12-22T05:14:45.616Z,7.50
2018-12-22T05:17:12.684Z,4.60
2018-12-22T05:19:39.776Z,4.83
2018-12-22T05:22:06.962Z,4.10
2018-12-22T05:24:34.023Z,3.20
2018-12-22T05:27:01.242Z,2.90
2018-12-22T05:29:28.337Z,4.00
2018-12-22T05:31:55.731Z,4.83
2018-12-22T05:34:22.808Z,4.83
2018-12-22T05:36:49.883Z,2.33
2018-12-22T05:39:16.952Z,3.70
2018-12-22T05:41:44.023Z,5.10
2018-12-22T05:44:11.215Z,5.33
2018-12-22T05:46:38.278Z,5.57
2018-12-22T05:49:05.464Z,5.47
2018-12-22T05:51:32.531Z,2.13
2018-12-22T05:53:59.598Z,3.07
2018-12-22T05:56:26.670Z,4.57
2018-12-22T05:58:53.830Z,2.80
2018-12-22T06:01:20.915Z,4.07
2018-12-22T06:03:47.981Z,5.17
2018-12-22T06:06:15.042Z,7.67
2018-12-22T06:08:42.099Z,6.00
2018-12-22T06:11:09.172Z,6.77
2018-12-22T06:13:36.242Z,7.27
2018-12-22T06:16:03.523Z,6.60
2018-12-22T06:18:30.698Z,7.00
2018-12-22T06:20:57.895Z,11.17
2018-12-22T06:23:26.720Z,9.40
2018-12-22T06:25:54.267Z,5.80
2018-12-22T06:28:21.433Z,12.10
2018-12-22T06:30:48.623Z,10.20
2018-12-22T06:33:15.715Z,10.80
2018-12-22T06:35:42.891Z,6.93
2018-12-22T06:38:10.112Z,15.90
2018-12-22T06:40:37.279Z,13.27
2018-12-22T06:43:04.449Z,15.00
2018-12-22T06:45:31.506Z,9.47
2018-12-22T06:47:58.583Z,9.97
2018-12-22T06:50:25.670Z,14.37
2018-12-22T06:52:52.743Z,10.40
2018-12-22T06:55:19.914Z,12.67
2018-12-22T06:57:47.074Z,13.40
2018-12-22T07:00:17.863Z,8.03
2018-12-22T07:02:43.480Z,10.50
2018-12-22T07:05:10.680Z,11.00
2018-12-22T07:07:37.750Z,10.97
2018-12-22T07:10:06.769Z,10.43
2018-12-22T07:12:33.842Z,9.07
2018-12-22T07:15:00.967Z,10.17
2018-12-22T07:17:28.040Z,10.47
2018-12-22T07:19:55.232Z,11.60
2018-12-22T07:22:23.538Z,10.10
2018-12-22T07:24:50.870Z,10.20
2018-12-22T07:27:18.150Z,11.07
2018-12-22T07:29:45.335Z,11.70
2018-12-22T07:32:12.422Z,9.50
2018-12-22T07:34:39.487Z,12.55
2018-12-22T07:37:06.668Z,9.63
2018-12-22T07:39:33.767Z,11.10
2018-12-22T07:42:00.826Z,10.40
2018-12-22T07:44:27.894Z,11.33
2018-12-22T07:46:54.950Z,8.50
2018-12-22T07:49:22.028Z,11.23
2018-12-22T07:51:49.121Z,8.60
2018-12-22T07:54:16.314Z,12.13
2018-12-22T07:56:43.370Z,7.53
2018-12-22T07:59:10.452Z,11.63
2018-12-22T08:01:37.519Z,6.93
2018-12-22T08:04:04.708Z,15.03
2018-12-22T08:06:31.783Z,8.17
2018-12-22T08:08:58.875Z,8.37
2018-12-22T08:11:26.063Z,9.73
2018-12-22T08:13:53.250Z,10.10
2018-12-22T08:16:20.324Z,9.93
2018-12-22T08:18:47.503Z,5.90
2018-12-22T08:21:14.699Z,11.13
2018-12-22T08:23:41.825Z,12.67
2018-12-22T08:26:09.135Z,6.87
2018-12-22T08:28:36.199Z,10.13
2018-12-22T08:31:03.390Z,10.17
2018-12-22T08:33:30.514Z,10.47
2018-12-22T08:35:57.587Z,13.80
2018-12-22T08:38:24.650Z,11.10
2018-12-22T08:40:51.733Z,16.50
2018-12-22T08:43:18.795Z,6.93
2018-12-22T08:45:45.975Z,9.97
2018-12-22T08:48:13.051Z,12.20
2018-12-22T08:50:40.128Z,11.90
2018-12-22T08:53:07.220Z,9.47
2018-12-22T08:55:34.410Z,11.80
2018-12-22T08:58:01.479Z,18.67
2018-12-22T09:00:28.643Z,13.83
2018-12-22T09:02:55.728Z,14.97
2018-12-22T09:05:22.827Z,10.37
2018-12-22T09:07:49.943Z,11.37
2018-12-22T09:10:17.007Z,11.27
2018-12-22T09:12:44.187Z,16.50
2018-12-22T09:15:11.365Z,13.07
2018-12-22T09:17:38.479Z,13.57
2018-12-22T09:20:08.455Z,14.37
2018-12-22T09:22:35.516Z,10.80
2018-12-22T09:25:02.824Z,11.53
2018-12-22T09:27:30.009Z,12.37
2018-12-22T09:29:57.075Z,10.77
2018-12-22T09:32:24.147Z,10.40
2018-12-22T09:34:51.223Z,14.20
2018-12-22T09:37:18.423Z,13.73
2018-12-22T09:39:45.523Z,9.00
2018-12-22T09:42:12.615Z,12.23
2018-12-22T09:44:39.888Z,8.50
2018-12-22T09:47:07.080Z,11.47
2018-12-22T09:49:34.143Z,9.33
2018-12-22T09:52:01.314Z,4.97
2018-12-22T09:54:28.494Z,10.20
2018-12-22T09:56:56.868Z,8.60
2018-12-22T09:59:24.041Z,8.27
2018-12-22T10:01:51.212Z,7.33
2018-12-22T10:04:18.284Z,8.90
2018-12-22T10:06:45.375Z,6.80
2018-12-22T10:09:12.479Z,7.43
2018-12-22T10:11:39.667Z,9.50
2018-12-22T10:14:06.771Z,8.77
2018-12-22T10:16:33.843Z,8.53
2018-12-22T10:19:00.949Z,9.20
2018-12-22T10:21:28.052Z,13.67
2018-12-22T10:23:55.103Z,10.80
2018-12-22T10:26:22.173Z,14.43
2018-12-22T10:28:49.351Z,12.07
2018-12-22T10:31:18.072Z,10.83
2018-12-22T10:33:45.568Z,10.93
2018-12-22T10:36:12.643Z,12.83
2018-12-22T10:38:39.835Z,13.07
2018-12-22T10:41:07.004Z,12.13
2018-12-22T10:43:34.198Z,12.57
2018-12-22T10:46:01.282Z,11.47
2018-12-22T10:48:28.432Z,12.13
2018-12-22T10:50:55.611Z,11.47
2018-12-22T10:53:22.758Z,13.30
2018-12-22T10:55:50.067Z,13.10
2018-12-22T10:58:17.122Z,15.53
2018-12-22T11:00:44.190Z,11.23
2018-12-22T11:03:11.472Z,9.97
2018-12-22T11:05:38.771Z,12.23
2018-12-22T11:08:05.847Z,13.17
2018-12-22T11:10:32.954Z,13.93
2018-12-22T11:13:01.150Z,11.53
2018-12-22T11:15:28.234Z,16.63
2018-12-22T11:17:55.328Z,13.40
2018-12-22T11:20:22.519Z,10.87
2018-12-22T11:22:49.581Z,11.00
2018-12-22T11:25:20.802Z,12.43
2018-12-22T11:27:47.858Z,15.73
2018-12-22T11:30:32.098Z,12.50
2018-12-22T11:32:59.276Z,13.27
2018-12-22T11:35:26.340Z,11.90
2018-12-22T11:37:53.536Z,14.80
2018-12-22T11:40:20.619Z,13.47
2018-12-22T11:42:48.017Z,13.47
2018-12-22T11:45:15.379Z,14.50
2018-12-22T11:50:11.864Z,8.90
2018-12-22T11:52:39.590Z,16.50
2018-12-22T11:55:07.714Z,11.33
2018-12-22T11:57:34.890Z,11.57
2018-12-22T12:00:02.190Z,11.77
2018-12-22T12:02:29.386Z,11.67
2018-12-22T12:04:56.534Z,12.17
2018-12-22T12:07:23.741Z,14.93
2018-12-22T12:09:50.809Z,13.80
2018-12-22T12:12:17.987Z,15.00
2018-12-22T12:14:45.539Z,18.53
2018-12-22T12:18:18.453Z,14.77
2018-12-22T12:20:45.651Z,16.40
2018-12-22T12:23:12.846Z,16.20
2018-12-22T12:25:40.026Z,12.23
2018-12-22T12:28:07.106Z,16.57
2018-12-22T12:30:34.423Z,14.77
2018-12-22T12:33:01.614Z,13.60
2018-12-22T12:35:28.788Z,16.40
2018-12-22T12:37:55.862Z,10.73
2018-12-22T12:40:23.071Z,11.07
2018-12-22T12:42:50.143Z,14.20
2018-12-22T12:45:17.246Z,11.13
2018-12-22T12:47:45.735Z,12.50
2018-12-22T12:50:15.444Z,17.50
2018-12-22T12:52:42.617Z,18.23
2018-12-22T12:55:10.861Z,14.20
2018-12-22T12:57:38.284Z,18.23
2018-12-22T13:00:07.948Z,14.80
2018-12-22T13:02:35.177Z,12.13
2018-12-22T13:05:02.475Z,11.17
2018-12-22T13:07:29.667Z,13.70
2018-12-22T13:09:56.844Z,14.03
2018-12-22T13:12:27.186Z,11.77
2018-12-22T13:14:54.316Z,11.77
2018-12-22T13:17:21.603Z,10.40
2018-12-22T13:19:48.850Z,15.20
2018-12-22T13:22:16.050Z,19.90
2018-12-22T13:24:43.111Z,12.80
2018-12-22T13:27:10.187Z,16.50
2018-12-22T13:29:37.270Z,12.97
2018-12-22T13:32:09.465Z,15.60
2018-12-22T13:34:33.415Z,17.47
2018-12-22T13:37:00.475Z,14.20
2018-12-22T13:39:28.547Z,9.90
2018-12-22T13:41:55.645Z,16.07
2018-12-22T13:44:22.723Z,14.77
2018-12-22T13:46:49.910Z,12.17
2018-12-22T13:49:17.309Z,14.43
2018-12-22T13:51:45.566Z,14.13
2018-12-22T13:54:15.190Z,14.50
2018-12-22T13:56:42.421Z,12.37
2018-12-22T13:59:09.556Z,15.90
2018-12-22T14:01:40.638Z,12.90
2018-12-22T14:04:07.934Z,16.67
2018-12-22T14:06:39.868Z,13.13
2018-12-22T14:09:08.117Z,16.30
2018-12-22T14:11:35.526Z,14.80
2018-12-22T14:14:03.127Z,13.90
2018-12-22T14:16:35.638Z,12.93
2018-12-22T14:19:06.127Z,19.03
2018-12-22T14:21:33.203Z,12.17
2018-12-22T14:24:10.480Z,10.60
2018-12-22T14:26:37.651Z,14.00
2018-12-22T14:29:04.844Z,16.57
2018-12-22T14:31:32.030Z,14.77
2018-12-22T14:34:03.599Z,15.30
2018-12-22T14:36:30.663Z,26.23
2018-12-22T14:38:57.734Z,16.50
2018-12-22T14:41:24.932Z,17.03
2018-12-22T14:43:52.010Z,13.63
2018-12-22T14:46:19.078Z,16.17
2018-12-22T14:48:46.155Z,17.53
2018-12-22T14:51:13.352Z,15.87
2018-12-22T14:53:40.440Z,17.83
2018-12-22T14:56:07.655Z,16.50
2018-12-22T14:58:35.720Z,16.07
2018-12-22T15:01:02.898Z,21.37
2018-12-22T15:03:29.987Z,20.13
2018-12-22T15:05:57.163Z,15.97
2018-12-22T15:08:24.243Z,15.30
2018-12-22T15:10:51.416Z,16.47
2018-12-22T15:13:18.484Z,19.83
2018-12-22T15:15:45.706Z,14.17
2018-12-22T15:18:12.854Z,20.50
2018-12-22T15:20:40.034Z,20.20
2018-12-22T15:23:09.931Z,15.93
2018-12-22T15:25:37.136Z,16.53
2018-12-22T15:28:04.409Z,14.10
2018-12-22T15:30:31.482Z,18.37
2018-12-22T15:32:58.675Z,20.63
2018-12-22T15:35:25.967Z,19.27
2018-12-22T15:37:53.155Z,17.47
2018-12-22T15:40:20.434Z,16.77
2018-12-22T15:42:47.794Z,15.43
2018-12-22T15:45:15.106Z,21.83
2018-12-22T15:47:42.914Z,19.60
2018-12-22T15:50:12.726Z,16.83
2018-12-22T15:52:39.934Z,21.00
2018-12-22T15:55:07.621Z,24.20
2018-12-22T15:57:34.713Z,19.77
2018-12-22T16:00:02.033Z,21.83
2018-12-22T16:02:29.102Z,18.40
2018-12-22T16:04:56.154Z,17.87
2018-12-22T16:07:23.315Z,15.20
2018-12-22T16:09:50.394Z,19.27
2018-12-22T16:12:17.494Z,21.27
2018-12-22T16:14:44.655Z,18.47
2018-12-22T16:17:11.810Z,26.23
2018-12-22T16:19:38.971Z,19.37
2018-12-22T16:22:06.062Z,19.37
2018-12-22T16:24:33.250Z,21.23
2018-12-22T16:27:00.427Z,16.77
2018-12-22T16:29:31.016Z,33.50
2018-12-22T16:31:58.195Z,18.33
2018-12-22T16:34:25.283Z,21.37
2018-12-22T16:36:52.440Z,21.10
2018-12-22T16:39:19.543Z,23.87
2018-12-22T16:41:46.823Z,21.90
2018-12-22T16:44:16.547Z,18.10
2018-12-22T16:46:43.676Z,20.67
2018-12-22T16:49:10.766Z,18.13
2018-12-22T16:51:37.947Z,20.13
2018-12-22T16:54:05.148Z,21.30
2018-12-22T16:56:32.452Z,17.73
2018-12-22T16:59:00.587Z,17.30
2018-12-22T17:01:36.339Z,22.70
2018-12-22T17:04:03.627Z,18.00
2018-12-22T17:06:31.775Z,19.30
2018-12-22T17:08:58.951Z,17.17
2018-12-22T17:11:26.180Z,20.17
2018-12-22T17:13:53.254Z,21.67
2018-12-22T17:16:20.367Z,26.93
2018-12-22T17:18:47.566Z,16.67
2018-12-22T17:21:22.480Z,20.23
2018-12-22T17:23:53.714Z,20.33
2018-12-22T17:26:22.226Z,20.80
2018-12-22T17:28:49.291Z,21.90
2018-12-22T17:31:16.473Z,21.63
2018-12-22T17:33:43.669Z,20.07
2018-12-22T17:36:10.855Z,20.40
2018-12-22T17:38:38.139Z,16.80
2018-12-22T17:41:05.431Z,20.27
2018-12-22T17:43:32.590Z,22.90
2018-12-22T17:45:59.818Z,23.90
2018-12-22T17:48:27.099Z,18.27
2018-12-22T17:50:54.390Z,17.20
2018-12-22T17:53:23.289Z,21.37
2018-12-22T17:55:50.534Z,17.83
2018-12-22T17:58:17.605Z,18.60
2018-12-22T18:00:44.899Z,17.80
2018-12-22T18:03:13.207Z,19.87
2018-12-22T18:05:40.280Z,19.77
2018-12-22T18:08:07.456Z,22.13
2018-12-22T18:10:34.776Z,17.97
2018-12-22T18:13:01.974Z,19.37
2018-12-22T18:15:29.369Z,19.90
2018-12-22T18:17:56.446Z,18.77
2018-12-22T18:20:23.531Z,19.07
2018-12-22T18:22:50.611Z,14.67
2018-12-22T18:25:18.093Z,18.33
2018-12-22T18:27:46.049Z,14.73
2018-12-22T18:30:17.915Z,18.17
2018-12-22T18:32:45.135Z,18.20
2018-12-22T18:35:12.450Z,16.10
2018-12-22T18:37:39.642Z,18.40
2018-12-22T18:40:12.480Z,18.60
2018-12-22T18:42:39.577Z,21.53
2018-12-22T18:45:08.918Z,18.43
2018-12-22T18:47:36.111Z,17.87
2018-12-22T18:50:05.275Z,21.13
2018-12-22T18:52:32.617Z,24.40
2018-12-22T18:54:59.966Z,15.70
2018-12-22T18:57:27.079Z,22.80
2018-12-22T18:59:54.158Z,18.80
2018-12-22T19:02:21.330Z,17.10
2018-12-22T19:04:48.556Z,18.70
2018-12-22T19:07:15.627Z,17.63
2018-12-22T19:09:44.599Z,15.37
2018-12-22T19:12:15.058Z,16.17
2018-12-22T19:14:52.183Z,15.43
2018-12-22T19:17:19.311Z,19.90
2018-12-22T19:19:46.504Z,19.27
2018-12-22T19:22:13.682Z,16.90
2018-12-22T19:24:40.747Z,16.87
2018-12-22T19:27:07.831Z,20.80
2018-12-22T19:29:34.910Z,15.23
2018-12-22T19:32:01.987Z,17.10
2018-12-22T19:34:29.079Z,20.87
2018-12-22T19:36:56.163Z,17.97
2018-12-22T19:39:23.231Z,21.23
2018-12-22T19:41:50.334Z,17.87
2018-12-22T19:44:17.404Z,18.57
2018-12-22T19:46:44.482Z,21.30
2018-12-22T19:49:11.547Z,16.23
2018-12-22T19:51:38.656Z,20.77
2018-12-22T19:54:05.860Z,17.60
2018-12-22T19:56:32.935Z,19.93
2018-12-22T19:59:00.061Z,15.37
2018-12-22T20:01:27.138Z,20.23
2018-12-22T20:04:01.864Z,22.83
2018-12-22T20:06:23.454Z,21.13
2018-12-22T20:08:50.562Z,15.35
2018-12-22T20:11:17.942Z,16.37
2018-12-22T20:13:45.014Z,22.80
2018-12-22T20:16:12.104Z,28.10
2018-12-22T20:18:39.187Z,25.13
2018-12-22T20:21:06.366Z,23.83
2018-12-22T20:23:33.452Z,21.90
2018-12-22T20:26:00.591Z,25.67
2018-12-22T20:28:27.667Z,23.83
2018-12-22T20:30:54.840Z,27.23
2018-12-22T20:33:22.023Z,19.80
2018-12-22T20:35:49.198Z,23.90
2018-12-22T20:38:16.259Z,25.33
2018-12-22T20:40:43.475Z,20.33
2018-12-22T20:43:10.535Z,26.53
2018-12-22T20:45:37.723Z,22.97
2018-12-22T20:48:04.780Z,21.43
2018-12-22T20:50:31.855Z,22.87
2018-12-22T20:52:58.924Z,22.27
2018-12-22T20:55:25.998Z,21.83
2018-12-22T20:57:53.068Z,21.73
2018-12-22T21:00:20.388Z,19.60
2018-12-22T21:02:47.575Z,20.57
2018-12-22T21:05:16.303Z,27.47
2018-12-22T21:07:43.484Z,20.50
2018-12-22T21:10:10.650Z,20.07
2018-12-22T21:12:37.711Z,22.77
2018-12-22T21:15:05.407Z,20.00
2018-12-22T21:17:32.474Z,22.50
2018-12-22T21:19:59.560Z,22.60
2018-12-22T21:22:26.659Z,21.60
2018-12-22T21:24:53.714Z,23.17
2018-12-22T21:27:20.777Z,25.33
2018-12-22T21:29:47.972Z,23.97
2018-12-22T21:32:15.066Z,25.33
2018-12-22T21:34:42.167Z,22.53
2018-12-22T21:37:09.252Z,22.67
2018-12-22T21:39:36.316Z,22.20
2018-12-22T21:42:03.508Z,23.10
2018-12-22T21:44:30.599Z,19.43
2018-12-22T21:46:57.791Z,22.23
2018-12-22T21:49:24.861Z,26.83
2018-12-22T21:51:51.948Z,25.43
2018-12-22T21:54:19.022Z,24.07
2018-12-22T21:56:46.075Z,27.17
2018-12-22T21:59:13.149Z,26.37
2018-12-22T22:01:40.230Z,22.10
2018-12-22T22:04:07.407Z,27.17
2018-12-22T22:06:34.490Z,29.00
2018-12-22T22:09:01.562Z,22.90
2018-12-22T22:11:28.642Z,27.37
2018-12-22T22:13:55.703Z,27.23
2018-12-22T22:16:23.038Z,28.40
2018-12-22T22:18:50.139Z,24.23
2018-12-22T22:21:17.323Z,35.73
2018-12-22T22:23:44.411Z,22.00
2018-12-22T22:26:11.545Z,32.33
2018-12-22T22:28:38.670Z,30.47
2018-12-22T22:31:05.746Z,26.50
2018-12-22T22:33:32.831Z,27.20
2018-12-22T22:35:59.904Z,25.95
2018-12-22T22:38:27.026Z,31.77
2018-12-22T22:40:54.151Z,29.63
2018-12-22T22:43:21.234Z,23.43
2018-12-22T22:45:48.331Z,26.63
2018-12-22T22:48:15.444Z,25.10
2018-12-22T22:50:42.859Z,31.17
2018-12-22T22:53:09.922Z,29.90
2018-12-22T22:55:36.995Z,23.90
2018-12-22T22:58:04.220Z,31.80
2018-12-22T23:00:33.639Z,24.57
2018-12-22T23:03:00.810Z,32.23
2018-12-22T23:05:27.894Z,33.90
2018-12-22T23:07:55.107Z,29.97
2018-12-22T23:10:22.190Z,29.13
2018-12-22T23:12:49.524Z,31.23
2018-12-22T23:15:16.719Z,25.23
2018-12-22T23:17:43.807Z,31.20
2018-12-22T23:20:10.991Z,25.80
2018-12-22T23:22:38.070Z,33.50
2018-12-22T23:25:05.374Z,30.33
2018-12-22T23:27:32.615Z,33.07
2018-12-22T23:29:59.691Z,26.03
2018-12-22T23:32:26.770Z,30.07
2018-12-22T23:34:53.863Z,32.27
2018-12-22T23:37:21.052Z,28.30
2018-12-22T23:39:48.294Z,31.00
2018-12-22T23:42:15.405Z,32.10
2018-12-22T23:44:42.691Z,28.30
2018-12-22T23:47:09.867Z,30.03
2018-12-22T23:49:37.064Z,31.70
2018-12-22T23:52:04.251Z,34.73
2018-12-22T23:54:31.331Z,32.10
2018-12-22T23:56:58.394Z,35.43
2018-12-22T23:59:25.575Z,36.20
